Terminal Aerodrome Forecast
Issued by NWS Tulsa, OK

Home | Current Version | Previous Version | Text Only | Print | Product List | Glossary On
Versions: 1 2 3 4 5 6 7 8 9 10 11 12 13 14
570
FTUS44 KTSA 221741
TAFFSM
TAF
KFSM 221741Z 2218/2318 08008KT P6SM VCSH SCT017 BKN050 OVC110
     FM222300 36007KT P6SM OVC050
      TEMPO 2223/2303 2SM +TSRA BKN030CB
     FM230300 04006KT P6SM VCTS OVC050CB
      TEMPO 2303/2307 2SM +TSRA BKN030CB
     FM230800 04008KT P6SM OVC040=

USA.gov is the U.S. government's official web portal to all federal, state and local government web resources and services.